Time;durP1;ratioP1;P1;durP2;ratioP2;P2;SDS_P1;SDS_P2;PMS_P1;PMS_P2;Temp;Humidity;BMP_temperature;BMP_pressure;BME280_temperature;BME280_humidity;BME280_pressure;Samples;Min_cycle;Max_cycle;Signal;HPM_P1;HPM_P2
2023/05/11 00:01:46;;;;;;;1.30;0.50;;;10.40;99.90;;;;;;4983148;28;20207;-68
2023/05/11 00:04:12;;;;;;;1.80;0.60;;;10.40;99.90;;;;;;4991570;28;20179;-68
2023/05/11 00:06:37;;;;;;;1.20;0.53;;;10.40;99.90;;;;;;4978426;28;20492;-68
2023/05/11 00:09:03;;;;;;;1.70;0.60;;;10.40;99.90;;;;;;4990031;28;20278;-68
2023/05/11 00:11:28;;;;;;;1.20;0.53;;;10.40;99.90;;;;;;4987775;28;20542;-69
2023/05/11 00:13:54;;;;;;;5.00;0.50;;;10.40;99.90;;;;;;4971736;28;20542;-68
2023/05/11 00:16:20;;;;;;;1.47;0.70;;;10.50;99.90;;;;;;4974050;28;20707;-68
2023/05/11 00:18:46;;;;;;;1.10;0.40;;;10.30;99.90;;;;;;4976975;28;20215;-68
2023/05/11 00:21:12;;;;;;;3.47;0.60;;;10.30;99.90;;;;;;4976017;28;20175;-68
2023/05/11 00:23:37;;;;;;;1.53;0.60;;;10.30;99.90;;;;;;4991120;28;20449;-68
2023/05/11 00:26:03;;;;;;;1.80;0.60;;;10.30;99.90;;;;;;4974040;28;20285;-68
2023/05/11 00:28:28;;;;;;;1.70;0.60;;;10.30;99.90;;;;;;4982704;28;20847;-68
2023/05/11 00:30:55;;;;;;;1.20;0.50;;;10.30;99.90;;;;;;4986763;28;20256;-69
2023/05/11 00:33:21;;;;;;;1.27;0.50;;;10.30;99.90;;;;;;4970173;28;20235;-68
2023/05/11 00:35:48;;;;;;;1.30;0.50;;;10.30;99.90;;;;;;4988341;28;20790;-68
2023/05/11 00:38:14;;;;;;;1.67;0.60;;;10.30;99.90;;;;;;4980598;28;20203;-68
2023/05/11 00:40:39;;;;;;;1.20;0.53;;;10.30;99.90;;;;;;4971755;28;20486;-68
2023/05/11 00:43:05;;;;;;;1.20;0.50;;;10.30;99.90;;;;;;4982576;28;20434;-68
2023/05/11 00:45:32;;;;;;;1.20;0.60;;;10.30;99.90;;;;;;4986504;28;20210;-68
2023/05/11 00:47:57;;;;;;;1.87;0.70;;;10.30;99.90;;;;;;4981382;28;20275;-68
2023/05/11 00:50:24;;;;;;;1.10;0.50;;;10.20;99.90;;;;;;4986857;28;20531;-68
2023/05/11 00:52:50;;;;;;;2.27;0.60;;;10.20;99.90;;;;;;4971735;28;20223;-69
2023/05/11 00:55:20;;;;;;;1.20;0.50;;;10.20;99.90;;;;;;4975120;28;20423;-68
2023/05/11 00:57:46;;;;;;;1.77;0.70;;;10.10;99.90;;;;;;4971861;28;20551;-68
2023/05/11 01:00:12;;;;;;;1.10;0.50;;;10.20;99.90;;;;;;4970893;28;20424;-68
2023/05/11 01:02:38;;;;;;;2.10;0.77;;;10.20;99.90;;;;;;4970376;28;20196;-68
2023/05/11 01:05:04;;;;;;;1.20;0.60;;;10.20;99.90;;;;;;4971343;28;20419;-68
2023/05/11 01:07:50;;;;;;;1.50;0.77;;;10.20;99.90;;;;;;4982377;28;20440;-68
2023/05/11 01:10:24;;;;;;;1.30;0.60;;;10.20;99.90;;;;;;4962986;28;20963;-68
2023/05/11 01:13:00;;;;;;;1.80;0.63;;;10.20;99.90;;;;;;4976220;28;20513;-68
2023/05/11 01:15:38;;;;;;;1.40;0.63;;;10.20;99.90;;;;;;4984241;28;20438;-68
2023/05/11 01:18:23;;;;;;;1.30;0.60;;;10.20;99.90;;;;;;4976922;28;20958;-68
2023/05/11 01:20:50;;;;;;;1.70;0.60;;;10.20;99.90;;;;;;4974980;28;20839;-68
2023/05/11 01:23:42;;;;;;;1.10;0.50;;;10.20;99.90;;;;;;4974634;28;20967;-68
2023/05/11 01:26:44;;;;;;;1.67;0.83;;;10.20;99.90;;;;;;4985250;28;20427;-68
2023/05/11 01:29:18;;;;;;;1.50;0.70;;;10.20;99.90;;;;;;4991325;28;20430;-68
2023/05/11 01:31:46;;;;;;;1.20;0.50;;;10.20;99.90;;;;;;4983014;28;20470;-68
2023/05/11 01:34:18;;;;;;;1.40;0.60;;;10.30;99.90;;;;;;4987776;28;20512;-68
2023/05/11 01:36:50;;;;;;;1.30;0.80;;;10.20;99.90;;;;;;4975286;28;20913;-68
2023/05/11 01:39:19;;;;;;;2.07;0.90;;;10.20;99.90;;;;;;4980479;28;21205;-68
2023/05/11 01:41:52;;;;;;;1.70;0.90;;;10.20;99.90;;;;;;4987521;28;21002;-68
2023/05/11 01:44:19;;;;;;;1.30;0.80;;;10.30;99.90;;;;;;4962450;28;20442;-68
2023/05/11 01:46:46;;;;;;;2.90;0.60;;;10.20;99.90;;;;;;4975676;28;20420;-68
2023/05/11 01:49:13;;;;;;;2.10;0.70;;;10.20;99.90;;;;;;4992551;28;20435;-68
2023/05/11 01:51:41;;;;;;;1.43;0.67;;;10.20;99.90;;;;;;4993130;28;20481;-68
2023/05/11 01:54:08;;;;;;;1.20;0.60;;;10.20;99.90;;;;;;4981793;28;20430;-68
2023/05/11 01:56:35;;;;;;;2.03;0.90;;;10.20;99.90;;;;;;4982898;28;20420;-68
2023/05/11 01:59:02;;;;;;;1.30;0.53;;;10.20;99.90;;;;;;4974220;28;20420;-68
2023/05/11 02:01:28;;;;;;;1.63;0.77;;;10.10;99.90;;;;;;4978241;28;20535;-68
2023/05/11 02:03:55;;;;;;;1.30;0.70;;;10.20;99.90;;;;;;4973938;28;20419;-68
2023/05/11 02:06:22;;;;;;;1.90;0.87;;;10.20;99.90;;;;;;4974523;28;20450;-68
2023/05/11 02:08:49;;;;;;;1.30;0.50;;;10.20;99.90;;;;;;4982408;28;20904;-68
2023/05/11 02:11:17;;;;;;;1.67;0.70;;;10.20;99.90;;;;;;4980521;28;20447;-68
2023/05/11 02:13:45;;;;;;;1.60;0.70;;;10.20;99.90;;;;;;4984584;28;20491;-68
2023/05/11 02:16:14;;;;;;;1.20;0.50;;;10.20;99.90;;;;;;4975846;28;20431;-68
2023/05/11 02:18:40;;;;;;;1.40;0.70;;;10.10;99.90;;;;;;4973774;28;20523;-68
2023/05/11 02:21:08;;;;;;;1.50;0.73;;;10.20;99.90;;;;;;4977548;28;20966;-68
2023/05/11 02:23:36;;;;;;;1.50;0.80;;;10.10;99.90;;;;;;4993330;28;20758;-68
2023/05/11 02:26:03;;;;;;;1.60;0.73;;;10.10;99.90;;;;;;4980737;28;20535;-68
2023/05/11 02:28:30;;;;;;;1.20;0.50;;;10.10;99.90;;;;;;4993494;28;20462;-68
2023/05/11 02:31:00;;;;;;;2.73;0.80;;;10.10;99.90;;;;;;4975590;28;20474;-68
2023/05/11 02:33:35;;;;;;;1.63;0.70;;;10.10;99.90;;;;;;4973145;28;20487;-68
2023/05/11 02:36:03;;;;;;;3.57;0.70;;;10.20;99.90;;;;;;4992822;28;20425;-68
2023/05/11 02:38:32;;;;;;;1.30;0.50;;;10.10;99.90;;;;;;4980210;28;20563;-68
2023/05/11 02:41:01;;;;;;;1.50;0.67;;;10.10;99.90;;;;;;4973939;28;20503;-68
2023/05/11 02:43:32;;;;;;;1.20;0.60;;;10.20;99.90;;;;;;4973533;28;20443;-68
2023/05/11 02:46:05;;;;;;;2.10;0.90;;;10.10;99.90;;;;;;4980969;28;20434;-68
2023/05/11 02:48:38;;;;;;;1.30;0.60;;;10.10;99.90;;;;;;4976520;28;20435;-68
2023/05/11 02:51:07;;;;;;;1.50;0.80;;;10.10;99.90;;;;;;4973304;28;20459;-68
2023/05/11 02:53:35;;;;;;;1.50;0.70;;;10.00;99.90;;;;;;4976652;28;20459;-68
2023/05/11 02:56:01;;;;;;;1.60;0.87;;;10.00;99.90;;;;;;4982526;28;20435;-68
2023/05/11 02:58:28;;;;;;;2.17;0.90;;;10.00;99.90;;;;;;4984532;28;20450;-68
2023/05/11 03:00:55;;;;;;;1.40;0.80;;;10.00;99.90;;;;;;4978379;28;20431;-68
2023/05/11 03:03:20;;;;;;;1.50;0.77;;;10.00;99.90;;;;;;4972888;28;20470;-68
2023/05/11 03:05:46;;;;;;;2.17;1.00;;;10.00;99.90;;;;;;4983138;28;20966;-68
2023/05/11 03:08:12;;;;;;;1.70;0.80;;;10.00;99.90;;;;;;4979793;28;20303;-68
2023/05/11 03:10:39;;;;;;;5.73;0.90;;;10.00;99.90;;;;;;4992845;28;20191;-68
2023/05/11 03:13:05;;;;;;;1.33;0.50;;;10.00;99.90;;;;;;4992119;28;20227;-68
2023/05/11 03:15:31;;;;;;;1.47;0.80;;;10.00;99.90;;;;;;4981423;28;20427;-68
2023/05/11 03:17:59;;;;;;;1.50;0.70;;;10.10;99.90;;;;;;4974944;28;20424;-68
2023/05/11 03:20:26;;;;;;;3.53;1.10;;;10.00;99.90;;;;;;4972669;28;20435;-68
2023/05/11 03:22:52;;;;;;;1.40;0.73;;;10.00;99.90;;;;;;4990352;28;20447;-68
2023/05/11 03:25:19;;;;;;;1.50;0.67;;;10.00;99.90;;;;;;4991328;28;20423;-68
2023/05/11 03:27:45;;;;;;;1.50;0.70;;;10.00;99.90;;;;;;4972880;28;20507;-68
2023/05/11 03:30:13;;;;;;;1.70;0.77;;;10.10;99.90;;;;;;4972266;28;20441;-68
2023/05/11 03:32:39;;;;;;;1.43;0.77;;;10.00;99.90;;;;;;4971089;28;20567;-68
2023/05/11 03:35:05;;;;;;;1.20;0.50;;;10.00;99.90;;;;;;4975019;28;20522;-68
2023/05/11 03:37:31;;;;;;;4.50;0.70;;;10.00;99.90;;;;;;4972807;28;20276;-68
2023/05/11 03:39:58;;;;;;;1.50;0.73;;;10.00;99.90;;;;;;4971437;28;20824;-68
2023/05/11 03:42:25;;;;;;;3.10;1.30;;;10.00;99.90;;;;;;4977935;28;20461;-68
2023/05/11 03:44:54;;;;;;;2.80;0.93;;;10.00;99.90;;;;;;4980018;28;20478;-68
2023/05/11 03:47:21;;;;;;;1.93;0.80;;;9.90;99.90;;;;;;4978741;28;20431;-68
2023/05/11 03:49:48;;;;;;;1.57;0.70;;;10.00;99.90;;;;;;4978568;28;20490;-68
2023/05/11 03:52:14;;;;;;;1.77;0.77;;;10.00;99.90;;;;;;4977838;28;20513;-68
2023/05/11 03:54:41;;;;;;;6.53;1.03;;;10.00;99.90;;;;;;4979575;28;21101;-68
2023/05/11 03:57:09;;;;;;;1.30;0.63;;;10.00;99.90;;;;;;4985930;28;20570;-68
2023/05/11 03:59:35;;;;;;;1.43;0.67;;;10.00;99.90;;;;;;4985227;28;20454;-68
2023/05/11 04:02:01;;;;;;;1.40;0.70;;;10.00;99.90;;;;;;4982957;28;20431;-68
2023/05/11 04:04:31;;;;;;;1.40;0.63;;;9.90;99.90;;;;;;4978631;28;20629;-68
2023/05/11 04:06:57;;;;;;;1.27;0.70;;;10.00;99.90;;;;;;4972239;28;20462;-68
2023/05/11 04:09:23;;;;;;;2.03;1.07;;;10.00;99.90;;;;;;4972113;28;20423;-68
2023/05/11 04:11:49;;;;;;;1.43;0.70;;;10.00;99.90;;;;;;4971739;28;20525;-68
2023/05/11 04:14:16;;;;;;;3.73;0.93;;;10.00;99.90;;;;;;4984114;28;20195;-68
2023/05/11 04:16:42;;;;;;;1.50;0.67;;;10.00;99.90;;;;;;4973916;28;20184;-68
2023/05/11 04:19:08;;;;;;;2.37;0.60;;;10.00;99.90;;;;;;4977078;28;20435;-68
2023/05/11 04:21:34;;;;;;;1.57;0.80;;;10.00;99.90;;;;;;4983997;28;20458;-68
2023/05/11 04:24:00;;;;;;;1.47;0.60;;;10.00;99.90;;;;;;4984852;28;20179;-68
2023/05/11 04:26:26;;;;;;;1.40;0.60;;;10.00;99.90;;;;;;4979555;28;20425;-68
2023/05/11 04:28:51;;;;;;;3.13;0.80;;;10.00;99.90;;;;;;4977718;28;20216;-69
2023/05/11 04:31:17;;;;;;;1.60;0.77;;;10.10;99.90;;;;;;4971936;28;20602;-69
2023/05/11 04:33:42;;;;;;;1.93;0.80;;;10.00;99.90;;;;;;4984287;28;20271;-69
2023/05/11 04:36:08;;;;;;;2.53;0.80;;;10.10;99.90;;;;;;4978274;28;20371;-69
2023/05/11 04:38:34;;;;;;;1.87;0.90;;;10.10;99.90;;;;;;4983439;28;20258;-69
2023/05/11 04:41:04;;;;;;;1.67;0.90;;;10.10;99.90;;;;;;4984886;28;20193;-69
2023/05/11 04:43:30;;;;;;;1.50;0.80;;;10.10;99.90;;;;;;4984724;28;20184;-69
2023/05/11 04:45:56;;;;;;;1.57;0.80;;;10.10;99.90;;;;;;4971932;28;20422;-69
2023/05/11 04:48:21;;;;;;;1.40;0.70;;;10.10;99.90;;;;;;4971012;28;20184;-69
2023/05/11 04:50:47;;;;;;;1.30;0.57;;;10.10;99.90;;;;;;4971578;28;20268;-69
2023/05/11 04:53:13;;;;;;;1.77;0.80;;;10.10;99.90;;;;;;4984370;28;20230;-69
2023/05/11 04:55:38;;;;;;;1.20;0.60;;;10.10;99.90;;;;;;4971949;28;20243;-69
2023/05/11 04:58:04;;;;;;;1.30;0.70;;;10.10;99.90;;;;;;4972754;28;20263;-69
2023/05/11 05:00:30;;;;;;;1.40;0.70;;;10.10;99.90;;;;;;4983377;28;20720;-69
2023/05/11 05:02:55;;;;;;;1.97;0.83;;;10.10;99.90;;;;;;4984295;28;20640;-69
2023/05/11 05:05:21;;;;;;;1.30;0.70;;;10.20;99.90;;;;;;4971152;28;20238;-69
2023/05/11 05:07:46;;;;;;;2.27;1.00;;;10.20;99.90;;;;;;4971900;28;20192;-69
2023/05/11 05:10:12;;;;;;;2.07;1.03;;;10.20;99.90;;;;;;4971691;28;20193;-69
2023/05/11 05:12:38;;;;;;;1.50;0.97;;;10.20;99.90;;;;;;4972271;28;20200;-69
2023/05/11 05:15:04;;;;;;;1.40;0.77;;;10.30;99.90;;;;;;4990816;28;20267;-69
2023/05/11 05:17:30;;;;;;;1.20;0.50;;;10.20;99.90;;;;;;4975053;28;20427;-69
2023/05/11 05:19:59;;;;;;;2.30;0.67;;;10.30;99.90;;;;;;4977566;28;20440;-68
2023/05/11 05:22:25;;;;;;;1.57;0.80;;;10.20;99.90;;;;;;4983210;28;20199;-68
2023/05/11 05:24:50;;;;;;;2.23;0.87;;;10.30;99.90;;;;;;4971422;28;20982;-69
2023/05/11 05:27:16;;;;;;;1.57;0.87;;;10.30;99.90;;;;;;4978334;28;20419;-69
2023/05/11 05:29:42;;;;;;;2.27;1.10;;;10.30;99.90;;;;;;4977433;28;20287;-69
2023/05/11 05:32:07;;;;;;;1.40;0.60;;;10.40;99.90;;;;;;4990623;28;20243;-69
2023/05/11 05:34:33;;;;;;;1.20;0.60;;;10.40;99.90;;;;;;4990562;28;20254;-69
2023/05/11 05:36:58;;;;;;;2.50;0.70;;;10.40;99.90;;;;;;4971488;28;20181;-69
2023/05/11 05:39:24;;;;;;;10.63;1.00;;;10.50;99.90;;;;;;4984597;28;20184;-69
2023/05/11 05:41:50;;;;;;;4.13;1.30;;;10.40;99.90;;;;;;4970959;28;20202;-69
2023/05/11 05:44:15;;;;;;;2.63;1.17;;;10.50;99.90;;;;;;4971276;28;20193;-69
2023/05/11 05:46:41;;;;;;;1.40;0.90;;;10.50;99.90;;;;;;4971217;28;20213;-69
2023/05/11 05:49:07;;;;;;;1.47;0.83;;;10.50;99.90;;;;;;4983107;28;20236;-69
2023/05/11 05:51:32;;;;;;;1.30;0.60;;;10.50;99.90;;;;;;4970691;28;20207;-68
2023/05/11 05:53:58;;;;;;;2.33;0.90;;;10.50;99.90;;;;;;4971872;28;20188;-69
2023/05/11 05:56:23;;;;;;;2.43;0.87;;;10.60;99.90;;;;;;4987676;28;20236;-69
2023/05/11 05:58:49;;;;;;;1.57;0.80;;;10.70;99.90;;;;;;4979026;28;20190;-69
2023/05/11 06:01:14;;;;;;;1.60;0.90;;;10.60;99.90;;;;;;4980222;28;20184;-69
2023/05/11 06:03:40;;;;;;;2.37;0.80;;;10.60;99.90;;;;;;4981189;28;20586;-69
2023/05/11 06:06:06;;;;;;;1.40;0.80;;;10.50;99.90;;;;;;4980393;28;20201;-68
2023/05/11 06:08:32;;;;;;;2.03;0.97;;;10.60;99.90;;;;;;4974795;28;20195;-69
2023/05/11 06:10:58;;;;;;;1.83;0.90;;;10.50;99.90;;;;;;4974269;28;20771;-69
2023/05/11 06:13:23;;;;;;;1.20;0.60;;;10.60;99.90;;;;;;4974490;28;20488;-69
2023/05/11 06:15:49;;;;;;;1.50;0.63;;;10.60;99.90;;;;;;4986657;28;20176;-69
2023/05/11 06:18:15;;;;;;;2.43;0.90;;;10.50;99.90;;;;;;4977227;28;20571;-69
2023/05/11 06:20:41;;;;;;;1.93;0.83;;;10.50;99.90;;;;;;4980116;28;20188;-69
2023/05/11 06:23:06;;;;;;;1.60;0.83;;;10.70;99.90;;;;;;4980499;28;20568;-69
2023/05/11 06:25:35;;;;;;;2.40;0.70;;;10.80;99.90;;;;;;4993762;28;20422;-69
2023/05/11 06:28:01;;;;;;;1.63;0.73;;;10.70;99.90;;;;;;4980567;28;20188;-69
2023/05/11 06:30:27;;;;;;;1.63;0.80;;;10.90;99.90;;;;;;4974114;28;20473;-69
2023/05/11 06:32:52;;;;;;;1.20;0.53;;;10.80;99.90;;;;;;4973539;28;20223;-69
2023/05/11 06:35:18;;;;;;;1.50;0.80;;;10.80;99.90;;;;;;4986764;28;20200;-69
2023/05/11 06:37:43;;;;;;;1.57;1.03;;;10.90;99.90;;;;;;4985355;28;20664;-69
2023/05/11 06:40:09;;;;;;;9.20;1.03;;;10.90;99.90;;;;;;4979984;28;20188;-69
2023/05/11 06:42:35;;;;;;;2.47;0.90;;;10.90;99.90;;;;;;4980449;28;20185;-69
2023/05/11 06:45:00;;;;;;;1.30;0.67;;;10.90;99.90;;;;;;4973544;28;20188;-69
2023/05/11 06:47:26;;;;;;;1.20;0.50;;;10.90;99.90;;;;;;4986632;28;20188;-69
2023/05/11 06:49:52;;;;;;;1.63;0.73;;;10.90;99.90;;;;;;4972759;28;20570;-69
2023/05/11 06:52:17;;;;;;;2.70;0.90;;;11.00;99.90;;;;;;4973236;28;20204;-69
2023/05/11 06:54:43;;;;;;;5.33;0.90;;;11.00;99.90;;;;;;4986722;28;20259;-69
2023/05/11 06:57:08;;;;;;;2.90;0.70;;;11.10;99.90;;;;;;4986461;28;20184;-69
2023/05/11 06:59:34;;;;;;;1.33;0.60;;;11.10;99.90;;;;;;4978612;28;20188;-69
2023/05/11 07:02:00;;;;;;;1.97;0.60;;;11.10;99.90;;;;;;4973200;28;20604;-69
2023/05/11 07:04:26;;;;;;;1.70;0.70;;;11.10;99.90;;;;;;4979359;28;20621;-68
2023/05/11 07:06:51;;;;;;;1.13;0.57;;;11.10;99.90;;;;;;4973905;28;20537;-69
2023/05/11 07:09:17;;;;;;;8.27;2.20;;;11.20;99.90;;;;;;4973523;28;20268;-68
2023/05/11 07:11:43;;;;;;;1.70;0.80;;;11.10;99.90;;;;;;4985799;28;20234;-69
2023/05/11 07:14:08;;;;;;;2.30;0.70;;;11.10;99.90;;;;;;4973410;28;20208;-68
2023/05/11 07:16:37;;;;;;;2.70;1.37;;;11.10;99.90;;;;;;4973352;28;20173;-68
2023/05/11 07:19:04;;;;;;;1.90;0.80;;;11.10;99.90;;;;;;4975566;28;20172;-68
2023/05/11 07:21:31;;;;;;;2.70;0.60;;;11.10;99.90;;;;;;4985888;28;20417;-68
2023/05/11 07:23:57;;;;;;;1.33;0.70;;;11.10;99.90;;;;;;4986012;28;20818;-69
2023/05/11 07:26:23;;;;;;;1.97;0.70;;;11.10;99.90;;;;;;4973216;28;20893;-69
2023/05/11 07:28:48;;;;;;;1.60;0.90;;;11.10;99.90;;;;;;4972999;28;20424;-69
2023/05/11 07:31:14;;;;;;;1.60;0.73;;;11.20;99.90;;;;;;4973085;28;20525;-69
2023/05/11 07:33:39;;;;;;;1.33;0.73;;;11.20;99.90;;;;;;4972415;28;20212;-69
2023/05/11 07:36:06;;;;;;;1.50;0.70;;;11.20;99.90;;;;;;4972578;28;20206;-69
2023/05/11 07:38:32;;;;;;;1.33;0.60;;;11.30;99.90;;;;;;4989117;28;20180;-69
2023/05/11 07:40:58;;;;;;;4.83;0.70;;;11.30;99.90;;;;;;4980330;28;20451;-69
2023/05/11 07:43:23;;;;;;;1.90;1.00;;;11.20;99.90;;;;;;4985385;28;20460;-69
2023/05/11 07:45:49;;;;;;;1.70;0.80;;;11.20;99.90;;;;;;4972801;28;20211;-69
2023/05/11 07:48:15;;;;;;;2.17;0.70;;;11.20;99.90;;;;;;4971794;28;20844;-69
2023/05/11 07:50:41;;;;;;;1.50;0.73;;;11.30;99.90;;;;;;4972919;28;20184;-69
2023/05/11 07:53:07;;;;;;;1.87;1.10;;;11.40;99.90;;;;;;4990422;28;20203;-69
2023/05/11 07:55:32;;;;;;;1.60;0.73;;;11.50;99.90;;;;;;4980490;28;20518;-69
2023/05/11 07:57:58;;;;;;;4.50;0.80;;;11.40;99.90;;;;;;4976114;28;20222;-69
2023/05/11 08:00:24;;;;;;;1.50;0.70;;;11.50;99.90;;;;;;4972569;28;20184;-69
2023/05/11 08:02:50;;;;;;;3.20;1.00;;;11.50;99.90;;;;;;4969544;28;20185;-69
2023/05/11 08:05:16;;;;;;;1.30;0.60;;;11.40;99.90;;;;;;4970452;28;20196;-69
2023/05/11 08:07:42;;;;;;;1.60;0.70;;;11.40;99.90;;;;;;4972389;28;20196;-69
2023/05/11 08:10:08;;;;;;;1.30;0.67;;;11.50;99.90;;;;;;4970880;28;20907;-69
2023/05/11 08:12:35;;;;;;;4.50;1.07;;;11.50;99.90;;;;;;4975058;28;20230;-69
2023/05/11 08:15:01;;;;;;;1.33;0.60;;;11.50;99.90;;;;;;4978866;28;20440;-69
2023/05/11 08:17:27;;;;;;;1.60;0.87;;;11.50;99.90;;;;;;4973042;28;20893;-69
2023/05/11 08:19:53;;;;;;;2.10;1.20;;;11.60;99.90;;;;;;4970333;28;20422;-69
2023/05/11 08:22:18;;;;;;;1.80;0.80;;;11.60;99.90;;;;;;4989968;28;20187;-69
2023/05/11 08:24:44;;;;;;;4.70;0.97;;;11.70;99.90;;;;;;4990223;28;20194;-69
2023/05/11 08:27:10;;;;;;;3.83;1.20;;;11.70;99.90;;;;;;4971133;28;20200;-69
2023/05/11 08:29:35;;;;;;;1.20;0.50;;;11.80;99.90;;;;;;4970883;28;20195;-69
2023/05/11 08:32:01;;;;;;;1.97;0.90;;;11.80;99.90;;;;;;4989274;28;20538;-69
2023/05/11 08:34:27;;;;;;;1.93;0.90;;;11.80;99.90;;;;;;4976932;28;20188;-69
2023/05/11 08:36:54;;;;;;;1.50;0.70;;;11.80;99.90;;;;;;4976348;28;20198;-69
2023/05/11 08:39:20;;;;;;;2.27;1.10;;;11.80;99.90;;;;;;4975781;28;20544;-69
2023/05/11 08:41:48;;;;;;;1.80;0.90;;;12.00;99.90;;;;;;4964182;28;20561;-69
2023/05/11 08:44:15;;;;;;;1.30;0.50;;;12.00;99.90;;;;;;4989522;28;20498;-69
2023/05/11 08:46:45;;;;;;;2.30;1.10;;;12.00;99.90;;;;;;4970547;28;20439;-69
2023/05/11 08:49:13;;;;;;;1.50;0.77;;;12.00;99.90;;;;;;4982033;28;20425;-69
2023/05/11 08:51:39;;;;;;;1.40;0.70;;;12.00;99.90;;;;;;4970214;28;20424;-69
2023/05/11 08:54:06;;;;;;;2.00;1.00;;;12.10;99.90;;;;;;4970393;28;20428;-69
2023/05/11 08:56:36;;;;;;;2.13;0.70;;;12.10;99.90;;;;;;4978333;28;20950;-69
2023/05/11 08:59:03;;;;;;;1.50;0.70;;;12.10;99.90;;;;;;4974935;28;20439;-69
2023/05/11 09:01:30;;;;;;;1.50;0.87;;;12.20;99.90;;;;;;4969725;28;20420;-68
2023/05/11 09:03:57;;;;;;;1.60;0.70;;;12.10;99.90;;;;;;4972237;28;20828;-69
2023/05/11 09:06:25;;;;;;;1.80;0.80;;;12.10;99.90;;;;;;4975468;28;20466;-69
2023/05/11 09:08:52;;;;;;;1.40;0.80;;;12.10;99.90;;;;;;4969731;28;20434;-69
2023/05/11 09:11:18;;;;;;;1.43;0.60;;;12.10;99.90;;;;;;4978697;28;21325;-70
2023/05/11 09:13:44;;;;;;;2.10;0.70;;;12.00;99.90;;;;;;4975647;28;21556;-70
2023/05/11 09:16:10;;;;;;;1.40;0.70;;;12.00;99.90;;;;;;4979651;28;20458;-70
2023/05/11 09:18:45;;;;;;;5.87;0.80;;;12.00;99.90;;;;;;4975114;28;20452;-70
2023/05/11 09:21:11;;;;;;;1.77;0.87;;;12.00;99.90;;;;;;4971659;28;20621;-70
2023/05/11 09:23:37;;;;;;;1.70;0.80;;;12.10;99.90;;;;;;4969514;28;20435;-70
2023/05/11 09:26:03;;;;;;;2.40;0.80;;;12.00;99.90;;;;;;4969711;28;20193;-70
2023/05/11 09:28:28;;;;;;;1.23;0.60;;;12.00;99.90;;;;;;4974791;28;20638;-70
2023/05/11 09:30:54;;;;;;;2.13;0.70;;;12.10;99.90;;;;;;4983689;28;20202;-70
2023/05/11 09:33:24;;;;;;;1.37;0.77;;;12.10;99.90;;;;;;4979356;28;20250;-70
2023/05/11 09:35:50;;;;;;;3.23;0.90;;;12.10;99.90;;;;;;4992290;28;20179;-70
2023/05/11 09:38:18;;;;;;;1.50;0.67;;;12.10;99.90;;;;;;4987076;28;20474;-70
2023/05/11 09:40:53;;;;;;;2.97;0.90;;;12.20;99.90;;;;;;4984069;28;20931;-70
2023/05/11 09:43:24;;;;;;;1.30;0.60;;;12.30;99.90;;;;;;4973240;28;20426;-70
2023/05/11 09:45:55;;;;;;;2.07;0.97;;;12.30;99.90;;;;;;4986368;28;20441;-70
2023/05/11 09:48:20;;;;;;;1.43;0.63;;;12.30;99.90;;;;;;4958681;28;20431;-68
2023/05/11 09:50:57;;;;;;;1.70;0.70;;;12.30;99.90;;;;;;4986233;28;20916;-68
2023/05/11 09:53:44;;;;;;;3.20;0.97;;;12.30;99.90;;;;;;4981303;28;20247;-68
2023/05/11 09:56:11;;;;;;;3.90;1.50;;;12.40;99.90;;;;;;4974159;28;20519;-68
2023/05/11 09:58:52;;;;;;;1.77;0.90;;;12.40;99.90;;;;;;4977405;28;20428;-69
2023/05/11 10:01:28;;;;;;;1.30;0.60;;;12.40;99.90;;;;;;4979736;28;20448;-69
2023/05/11 10:03:53;;;;;;;3.43;0.80;;;12.60;99.90;;;;;;4988000;28;20434;-68
2023/05/11 10:06:19;;;;;;;1.40;1.00;;;12.60;99.90;;;;;;4985081;28;20458;-70
2023/05/11 10:08:45;;;;;;;1.20;0.60;;;12.60;99.90;;;;;;4977542;28;20192;-69
2023/05/11 10:11:11;;;;;;;1.47;0.80;;;12.50;99.90;;;;;;4973158;28;20192;-69
2023/05/11 10:13:38;;;;;;;2.40;0.80;;;12.70;99.90;;;;;;4972025;28;20238;-68
2023/05/11 10:16:05;;;;;;;2.33;0.80;;;12.50;99.90;;;;;;4972909;28;20199;-69
2023/05/11 10:18:32;;;;;;;1.30;0.70;;;12.30;99.90;;;;;;4977954;28;20430;-68
2023/05/11 10:20:58;;;;;;;2.83;1.10;;;12.40;99.90;;;;;;4985396;28;20423;-68
2023/05/11 10:23:25;;;;;;;3.93;0.80;;;12.40;99.90;;;;;;4976359;28;20443;-69
2023/05/11 10:25:52;;;;;;;8.70;0.90;;;12.30;99.90;;;;;;4996758;23;20486;-68
2023/05/11 10:28:19;;;;;;;3.00;0.83;;;12.50;99.90;;;;;;4989772;28;20423;-69
2023/05/11 10:30:46;;;;;;;1.90;0.73;;;12.40;99.90;;;;;;4982109;28;20427;-68
2023/05/11 10:33:12;;;;;;;2.13;0.90;;;12.50;99.90;;;;;;4976238;28;20467;-69
2023/05/11 10:35:39;;;;;;;1.60;0.90;;;12.50;99.90;;;;;;4972695;28;20451;-69
2023/05/11 10:38:06;;;;;;;1.63;0.93;;;12.60;99.90;;;;;;4985481;28;20437;-69
2023/05/11 10:40:39;;;;;;;2.33;1.07;;;12.60;99.90;;;;;;4981143;28;20533;-69
2023/05/11 10:43:18;;;;;;;1.50;0.83;;;12.60;99.90;;;;;;4991316;28;20521;-69
2023/05/11 10:46:10;;;;;;;1.50;0.70;;;12.70;99.90;;;;;;4992189;28;20419;-68
2023/05/11 10:49:09;;;;;;;1.90;1.00;;;12.70;99.90;;;;;;4978129;28;20515;-68
2023/05/11 10:51:52;;;;;;;1.63;0.70;;;12.70;99.90;;;;;;4997921;28;20426;-68
2023/05/11 10:54:23;;;;;;;1.47;0.80;;;12.70;99.90;;;;;;4983056;28;20427;-69
2023/05/11 10:57:12;;;;;;;3.97;0.67;;;12.70;99.90;;;;;;4982883;28;20430;-69
2023/05/11 10:59:47;;;;;;;2.47;0.90;;;12.70;99.90;;;;;;4982288;28;20590;-69
2023/05/11 11:02:13;;;;;;;1.30;0.60;;;12.80;99.90;;;;;;4976108;28;20995;-68
2023/05/11 11:04:41;;;;;;;1.50;0.70;;;12.80;99.90;;;;;;4985830;28;20536;-69
2023/05/11 11:07:07;;;;;;;5.77;0.80;;;13.00;99.90;;;;;;4986846;28;20184;-68
2023/05/11 11:10:11;;;;;;;1.47;0.73;;;13.00;99.90;;;;;;4982621;28;21080;-69
2023/05/11 11:12:37;;;;;;;1.77;0.70;;;13.10;99.90;;;;;;4950255;29;20472;-68
2023/05/11 11:15:05;;;;;;;6.60;0.63;;;13.20;99.90;;;;;;4949452;28;20432;-68
2023/05/11 11:17:33;;;;;;;2.00;1.20;;;13.40;99.90;;;;;;4972833;28;20195;-68
2023/05/11 11:20:01;;;;;;;1.47;0.60;;;13.50;99.90;;;;;;4990072;28;20442;-68
2023/05/11 11:22:40;;;;;;;1.40;0.60;;;13.50;99.90;;;;;;4971994;28;20442;-69
2023/05/11 11:25:10;;;;;;;1.30;0.50;;;13.40;99.90;;;;;;4975125;28;20803;-68
2023/05/11 11:27:57;;;;;;;1.77;0.60;;;13.40;99.90;;;;;;4991444;28;20518;-69
2023/05/11 11:30:25;;;;;;;1.77;0.80;;;13.30;99.90;;;;;;4985883;28;20419;-68
2023/05/11 11:33:15;;;;;;;1.47;0.67;;;13.20;99.90;;;;;;4978893;28;20463;-69
2023/05/11 11:35:41;;;;;;;1.40;0.80;;;13.20;99.90;;;;;;4972467;28;20424;-69
2023/05/11 11:38:11;;;;;;;2.00;0.80;;;13.20;99.90;;;;;;4977443;28;20415;-69
2023/05/11 11:40:44;;;;;;;1.30;0.60;;;13.30;99.90;;;;;;4992312;28;20180;-69
2023/05/11 11:43:18;;;;;;;3.27;0.70;;;13.20;99.90;;;;;;4987100;28;20416;-68
2023/05/11 11:45:56;;;;;;;1.30;0.60;;;13.20;99.90;;;;;;4972862;28;20431;-68
2023/05/11 11:48:34;;;;;;;1.50;0.80;;;13.30;99.90;;;;;;4977591;28;20433;-69
2023/05/11 11:51:18;;;;;;;1.60;0.60;;;13.20;99.90;;;;;;4978771;28;21258;-69
2023/05/11 11:53:50;;;;;;;1.30;0.60;;;13.30;99.90;;;;;;4991370;28;20561;-68
2023/05/11 11:56:15;;;;;;;1.73;0.90;;;13.40;99.90;;;;;;4986155;28;20511;-69
2023/05/11 11:58:41;;;;;;;1.73;0.60;;;13.50;99.90;;;;;;4979910;28;20517;-69
2023/05/11 12:01:19;;;;;;;2.03;0.67;;;13.60;99.90;;;;;;4974669;28;20204;-69
2023/05/11 12:03:48;;;;;;;1.83;0.70;;;13.70;99.90;;;;;;4985677;28;20514;-68
2023/05/11 12:06:19;;;;;;;4.53;1.10;;;13.70;99.90;;;;;;4991589;28;20446;-68
2023/05/11 12:08:45;;;;;;;1.33;0.60;;;13.60;99.90;;;;;;4989945;28;20514;-68
2023/05/11 12:11:16;;;;;;;2.67;0.57;;;13.60;99.90;;;;;;4972368;28;20828;-69
2023/05/11 12:13:42;;;;;;;1.97;0.90;;;13.90;99.90;;;;;;4973750;28;20208;-68
2023/05/11 12:16:14;;;;;;;1.60;0.60;;;13.90;99.90;;;;;;4991158;28;20433;-68
2023/05/11 12:18:40;;;;;;;1.80;0.70;;;13.90;99.90;;;;;;4991407;28;20411;-69
2023/05/11 12:21:06;;;;;;;1.40;0.60;;;13.70;99.90;;;;;;4988150;28;20453;-69
2023/05/11 12:23:32;;;;;;;1.50;0.70;;;13.70;99.90;;;;;;4974984;28;20463;-68
2023/05/11 12:26:05;;;;;;;1.30;0.60;;;13.80;99.90;;;;;;4972047;28;20231;-69
2023/05/11 12:28:34;;;;;;;1.20;0.50;;;13.80;99.90;;;;;;4983580;28;20191;-68
2023/05/11 12:31:00;;;;;;;2.33;0.50;;;13.80;99.90;;;;;;4982561;28;20421;-68
2023/05/11 12:33:26;;;;;;;1.40;0.60;;;13.90;99.90;;;;;;4991112;28;20459;-68
2023/05/11 12:35:53;;;;;;;1.63;0.60;;;13.90;99.90;;;;;;4980718;28;20416;-68
2023/05/11 12:38:19;;;;;;;1.50;0.60;;;14.00;99.90;;;;;;4978179;28;20426;-68
2023/05/11 12:40:49;;;;;;;1.20;0.50;;;14.00;99.90;;;;;;4981667;28;20428;-68
2023/05/11 12:43:21;;;;;;;2.40;0.70;;;14.00;99.90;;;;;;4972159;28;20188;-68
2023/05/11 12:45:48;;;;;;;1.80;0.70;;;14.10;99.90;;;;;;4972553;28;20428;-68
2023/05/11 12:48:14;;;;;;;1.30;0.60;;;14.10;99.90;;;;;;4971266;28;20435;-68
2023/05/11 12:50:43;;;;;;;1.50;0.63;;;14.10;99.90;;;;;;4972389;28;20420;-68
2023/05/11 12:53:19;;;;;;;1.30;0.60;;;14.10;99.90;;;;;;4971752;28;20486;-68